sensor_id;sensor_type;location;lat;lon;timestamp;temperature;humidity
27797;DHT22;15177;50.844;4.412;2023-05-10T00:01:50;15.00;99.90
27797;DHT22;15177;50.844;4.412;2023-05-10T00:04:15;15.00;99.90
27797;DHT22;15177;50.844;4.412;2023-05-10T00:06:42;15.00;99.90
27797;DHT22;15177;50.844;4.412;2023-05-10T00:09:07;14.90;99.90
27797;DHT22;15177;50.844;4.412;2023-05-10T00:11:33;14.90;99.90
27797;DHT22;15177;50.844;4.412;2023-05-10T00:13:58;15.00;99.90
27797;DHT22;15177;50.844;4.412;2023-05-10T00:16:24;15.00;99.90
27797;DHT22;15177;50.844;4.412;2023-05-10T00:18:51;15.00;99.90
27797;DHT22;15177;50.844;4.412;2023-05-10T00:21:17;15.00;99.90
27797;DHT22;15177;50.844;4.412;2023-05-10T00:23:42;15.00;99.90
27797;DHT22;15177;50.844;4.412;2023-05-10T00:26:08;14.90;99.90
27797;DHT22;15177;50.844;4.412;2023-05-10T00:28:34;14.90;99.90
27797;DHT22;15177;50.844;4.412;2023-05-10T00:30:59;14.90;99.90
27797;DHT22;15177;50.844;4.412;2023-05-10T00:33:25;15.00;99.90
27797;DHT22;15177;50.844;4.412;2023-05-10T00:35:51;15.00;99.90
27797;DHT22;15177;50.844;4.412;2023-05-10T00:38:16;15.00;99.90
27797;DHT22;15177;50.844;4.412;2023-05-10T00:40:43;15.00;99.90
27797;DHT22;15177;50.844;4.412;2023-05-10T00:43:09;15.00;99.90
27797;DHT22;15177;50.844;4.412;2023-05-10T00:45:35;15.10;99.90
27797;DHT22;15177;50.844;4.412;2023-05-10T00:48:02;15.00;99.90
27797;DHT22;15177;50.844;4.412;2023-05-10T00:50:30;15.10;99.90
27797;DHT22;15177;50.844;4.412;2023-05-10T00:52:57;15.00;99.90
27797;DHT22;15177;50.844;4.412;2023-05-10T00:55:23;15.00;99.90
27797;DHT22;15177;50.844;4.412;2023-05-10T00:57:49;15.00;99.90
27797;DHT22;15177;50.844;4.412;2023-05-10T01:00:15;14.90;99.90
27797;DHT22;15177;50.844;4.412;2023-05-10T01:02:44;15.00;99.90
27797;DHT22;15177;50.844;4.412;2023-05-10T01:05:11;15.10;99.90
27797;DHT22;15177;50.844;4.412;2023-05-10T01:07:37;15.00;99.90
27797;DHT22;15177;50.844;4.412;2023-05-10T01:10:03;15.10;99.90
27797;DHT22;15177;50.844;4.412;2023-05-10T01:12:29;15.10;99.90
27797;DHT22;15177;50.844;4.412;2023-05-10T01:14:55;15.00;99.90
27797;DHT22;15177;50.844;4.412;2023-05-10T01:17:21;15.00;99.90
27797;DHT22;15177;50.844;4.412;2023-05-10T01:19:47;15.10;99.90
27797;DHT22;15177;50.844;4.412;2023-05-10T01:34:09;14.90;99.90
27797;DHT22;15177;50.844;4.412;2023-05-10T01:36:45;15.00;99.90
27797;DHT22;15177;50.844;4.412;2023-05-10T01:39:24;15.00;99.90
27797;DHT22;15177;50.844;4.412;2023-05-10T01:41:55;15.10;99.90
27797;DHT22;15177;50.844;4.412;2023-05-10T01:47:43;15.00;99.90
27797;DHT22;15177;50.844;4.412;2023-05-10T01:50:21;15.00;99.90
27797;DHT22;15177;50.844;4.412;2023-05-10T01:52:55;14.90;99.90
27797;DHT22;15177;50.844;4.412;2023-05-10T01:55:25;14.90;99.90
27797;DHT22;15177;50.844;4.412;2023-05-10T01:58:04;14.90;99.90
27797;DHT22;15177;50.844;4.412;2023-05-10T02:00:32;15.00;99.90
27797;DHT22;15177;50.844;4.412;2023-05-10T02:03:00;15.00;99.90
27797;DHT22;15177;50.844;4.412;2023-05-10T02:05:28;15.00;99.90
27797;DHT22;15177;50.844;4.412;2023-05-10T02:07:55;15.00;99.90
27797;DHT22;15177;50.844;4.412;2023-05-10T02:10:21;15.00;99.90
27797;DHT22;15177;50.844;4.412;2023-05-10T02:12:48;15.00;99.90
27797;DHT22;15177;50.844;4.412;2023-05-10T02:15:18;15.00;99.90
27797;DHT22;15177;50.844;4.412;2023-05-10T02:17:46;14.90;99.90
27797;DHT22;15177;50.844;4.412;2023-05-10T02:20:16;14.80;99.90
27797;DHT22;15177;50.844;4.412;2023-05-10T02:22:42;14.80;99.90
27797;DHT22;15177;50.844;4.412;2023-05-10T02:25:11;14.80;99.90
27797;DHT22;15177;50.844;4.412;2023-05-10T02:27:38;14.70;99.90
27797;DHT22;15177;50.844;4.412;2023-05-10T02:30:08;14.80;99.90
27797;DHT22;15177;50.844;4.412;2023-05-10T02:32:36;14.90;99.90
27797;DHT22;15177;50.844;4.412;2023-05-10T02:35:03;14.80;99.90
27797;DHT22;15177;50.844;4.412;2023-05-10T02:37:30;14.80;99.90
27797;DHT22;15177;50.844;4.412;2023-05-10T02:39:58;14.80;99.90
27797;DHT22;15177;50.844;4.412;2023-05-10T02:42:27;14.70;99.90
27797;DHT22;15177;50.844;4.412;2023-05-10T02:45:00;14.70;99.90
27797;DHT22;15177;50.844;4.412;2023-05-10T02:47:27;14.70;99.90
27797;DHT22;15177;50.844;4.412;2023-05-10T02:49:53;14.70;99.90
27797;DHT22;15177;50.844;4.412;2023-05-10T02:52:27;14.60;99.90
27797;DHT22;15177;50.844;4.412;2023-05-10T02:55:00;14.70;99.90
27797;DHT22;15177;50.844;4.412;2023-05-10T02:57:33;14.70;99.90
27797;DHT22;15177;50.844;4.412;2023-05-10T02:59:59;14.70;99.90
27797;DHT22;15177;50.844;4.412;2023-05-10T03:02:26;14.70;99.90
27797;DHT22;15177;50.844;4.412;2023-05-10T03:04:52;14.70;99.90
27797;DHT22;15177;50.844;4.412;2023-05-10T03:07:18;14.60;99.90
27797;DHT22;15177;50.844;4.412;2023-05-10T03:09:47;14.60;99.90
27797;DHT22;15177;50.844;4.412;2023-05-10T03:18:04;14.60;99.90
27797;DHT22;15177;50.844;4.412;2023-05-10T03:20:36;14.60;99.90
27797;DHT22;15177;50.844;4.412;2023-05-10T03:23:11;14.60;99.90
27797;DHT22;15177;50.844;4.412;2023-05-10T03:25:37;14.60;99.90
27797;DHT22;15177;50.844;4.412;2023-05-10T03:28:04;14.60;99.90
27797;DHT22;15177;50.844;4.412;2023-05-10T03:30:30;14.60;99.90
27797;DHT22;15177;50.844;4.412;2023-05-10T03:32:56;14.40;99.90
27797;DHT22;15177;50.844;4.412;2023-05-10T03:35:23;14.50;99.90
27797;DHT22;15177;50.844;4.412;2023-05-10T03:37:49;14.50;99.90
27797;DHT22;15177;50.844;4.412;2023-05-10T03:40:14;14.40;99.90
27797;DHT22;15177;50.844;4.412;2023-05-10T03:42:41;14.40;99.90
27797;DHT22;15177;50.844;4.412;2023-05-10T03:45:07;14.40;99.90
27797;DHT22;15177;50.844;4.412;2023-05-10T03:47:33;14.40;99.90
27797;DHT22;15177;50.844;4.412;2023-05-10T03:49:59;14.40;99.90
27797;DHT22;15177;50.844;4.412;2023-05-10T03:52:24;14.40;99.90
27797;DHT22;15177;50.844;4.412;2023-05-10T03:54:50;14.30;99.90
27797;DHT22;15177;50.844;4.412;2023-05-10T03:57:16;14.30;99.90
27797;DHT22;15177;50.844;4.412;2023-05-10T03:59:41;14.30;99.90
27797;DHT22;15177;50.844;4.412;2023-05-10T04:02:07;14.40;99.90
27797;DHT22;15177;50.844;4.412;2023-05-10T04:04:33;14.30;99.90
27797;DHT22;15177;50.844;4.412;2023-05-10T04:06:58;14.20;99.90
27797;DHT22;15177;50.844;4.412;2023-05-10T04:09:24;14.30;99.90
27797;DHT22;15177;50.844;4.412;2023-05-10T04:11:49;14.40;99.90
27797;DHT22;15177;50.844;4.412;2023-05-10T04:14:15;14.30;99.90
27797;DHT22;15177;50.844;4.412;2023-05-10T04:16:41;14.40;99.90
27797;DHT22;15177;50.844;4.412;2023-05-10T04:19:07;14.40;99.90
27797;DHT22;15177;50.844;4.412;2023-05-10T04:21:32;14.50;99.90
27797;DHT22;15177;50.844;4.412;2023-05-10T04:23:58;14.50;99.90
27797;DHT22;15177;50.844;4.412;2023-05-10T04:26:24;14.40;99.90
27797;DHT22;15177;50.844;4.412;2023-05-10T04:28:50;14.30;99.90
27797;DHT22;15177;50.844;4.412;2023-05-10T04:31:16;14.20;99.90
27797;DHT22;15177;50.844;4.412;2023-05-10T04:33:43;14.30;99.90
27797;DHT22;15177;50.844;4.412;2023-05-10T04:36:09;14.30;99.90
27797;DHT22;15177;50.844;4.412;2023-05-10T04:38:35;14.20;99.90
27797;DHT22;15177;50.844;4.412;2023-05-10T04:41:07;14.20;99.90
27797;DHT22;15177;50.844;4.412;2023-05-10T04:43:33;14.30;99.90
27797;DHT22;15177;50.844;4.412;2023-05-10T04:45:58;14.50;99.90
27797;DHT22;15177;50.844;4.412;2023-05-10T04:48:24;14.50;99.90
27797;DHT22;15177;50.844;4.412;2023-05-10T04:50:51;14.50;99.90
27797;DHT22;15177;50.844;4.412;2023-05-10T04:53:16;14.50;99.90
27797;DHT22;15177;50.844;4.412;2023-05-10T04:55:42;14.30;99.90
27797;DHT22;15177;50.844;4.412;2023-05-10T04:58:08;14.40;99.90
27797;DHT22;15177;50.844;4.412;2023-05-10T05:00:33;14.30;99.90
27797;DHT22;15177;50.844;4.412;2023-05-10T05:02:59;14.40;99.90
27797;DHT22;15177;50.844;4.412;2023-05-10T05:05:25;14.40;99.90
27797;DHT22;15177;50.844;4.412;2023-05-10T05:07:50;14.40;99.90
27797;DHT22;15177;50.844;4.412;2023-05-10T05:10:16;14.50;99.90
27797;DHT22;15177;50.844;4.412;2023-05-10T05:12:42;14.50;99.90
27797;DHT22;15177;50.844;4.412;2023-05-10T05:15:07;14.50;99.90
27797;DHT22;15177;50.844;4.412;2023-05-10T05:17:35;14.50;99.90
27797;DHT22;15177;50.844;4.412;2023-05-10T05:20:01;14.60;99.90
27797;DHT22;15177;50.844;4.412;2023-05-10T05:22:27;14.60;99.90
27797;DHT22;15177;50.844;4.412;2023-05-10T05:24:57;14.50;99.90
27797;DHT22;15177;50.844;4.412;2023-05-10T05:27:26;14.60;99.90
27797;DHT22;15177;50.844;4.412;2023-05-10T05:29:55;14.60;99.90
27797;DHT22;15177;50.844;4.412;2023-05-10T05:32:22;14.50;99.90
27797;DHT22;15177;50.844;4.412;2023-05-10T05:34:48;14.50;99.90
27797;DHT22;15177;50.844;4.412;2023-05-10T05:37:15;14.50;99.90
27797;DHT22;15177;50.844;4.412;2023-05-10T05:39:41;14.50;99.90
27797;DHT22;15177;50.844;4.412;2023-05-10T05:42:08;14.50;99.90
27797;DHT22;15177;50.844;4.412;2023-05-10T05:44:36;14.60;99.90
27797;DHT22;15177;50.844;4.412;2023-05-10T05:47:02;14.50;99.90
27797;DHT22;15177;50.844;4.412;2023-05-10T05:49:28;14.50;99.90
27797;DHT22;15177;50.844;4.412;2023-05-10T05:51:54;14.60;99.90
27797;DHT22;15177;50.844;4.412;2023-05-10T05:54:20;14.60;99.90
27797;DHT22;15177;50.844;4.412;2023-05-10T05:56:45;14.50;99.90
27797;DHT22;15177;50.844;4.412;2023-05-10T05:59:11;14.60;99.90
27797;DHT22;15177;50.844;4.412;2023-05-10T06:01:37;14.80;99.90
27797;DHT22;15177;50.844;4.412;2023-05-10T06:04:03;14.90;99.90
27797;DHT22;15177;50.844;4.412;2023-05-10T06:06:30;15.00;99.90
27797;DHT22;15177;50.844;4.412;2023-05-10T06:08:59;15.00;99.90
27797;DHT22;15177;50.844;4.412;2023-05-10T06:11:25;15.00;99.90
27797;DHT22;15177;50.844;4.412;2023-05-10T06:13:51;15.00;99.90
27797;DHT22;15177;50.844;4.412;2023-05-10T06:16:17;15.10;99.90
27797;DHT22;15177;50.844;4.412;2023-05-10T06:18:43;15.10;99.90
27797;DHT22;15177;50.844;4.412;2023-05-10T06:21:08;15.00;99.90
27797;DHT22;15177;50.844;4.412;2023-05-10T06:23:34;15.00;99.90
27797;DHT22;15177;50.844;4.412;2023-05-10T06:26:01;14.90;99.90
27797;DHT22;15177;50.844;4.412;2023-05-10T06:28:27;14.90;99.90
27797;DHT22;15177;50.844;4.412;2023-05-10T06:30:53;14.90;99.90
27797;DHT22;15177;50.844;4.412;2023-05-10T06:33:19;14.80;99.90
27797;DHT22;15177;50.844;4.412;2023-05-10T06:35:45;14.80;99.90
27797;DHT22;15177;50.844;4.412;2023-05-10T06:38:13;14.80;99.90
27797;DHT22;15177;50.844;4.412;2023-05-10T06:40:43;14.80;99.90
27797;DHT22;15177;50.844;4.412;2023-05-10T06:43:10;14.80;99.90
27797;DHT22;15177;50.844;4.412;2023-05-10T06:45:37;14.80;99.90
27797;DHT22;15177;50.844;4.412;2023-05-10T06:48:07;14.80;99.90
27797;DHT22;15177;50.844;4.412;2023-05-10T06:50:37;14.80;99.90
27797;DHT22;15177;50.844;4.412;2023-05-10T06:53:04;14.80;99.90
27797;DHT22;15177;50.844;4.412;2023-05-10T06:55:30;14.80;99.90
27797;DHT22;15177;50.844;4.412;2023-05-10T06:58:21;14.80;99.90
27797;DHT22;15177;50.844;4.412;2023-05-10T07:00:48;14.70;99.90
27797;DHT22;15177;50.844;4.412;2023-05-10T07:03:13;14.70;99.90
27797;DHT22;15177;50.844;4.412;2023-05-10T07:05:41;14.70;99.90
27797;DHT22;15177;50.844;4.412;2023-05-10T07:08:08;14.80;99.90
27797;DHT22;15177;50.844;4.412;2023-05-10T07:10:33;14.80;99.90
27797;DHT22;15177;50.844;4.412;2023-05-10T07:13:02;14.80;99.90
27797;DHT22;15177;50.844;4.412;2023-05-10T07:15:32;14.80;99.90
27797;DHT22;15177;50.844;4.412;2023-05-10T07:17:59;14.70;99.90
27797;DHT22;15177;50.844;4.412;2023-05-10T07:20:24;14.70;99.90
27797;DHT22;15177;50.844;4.412;2023-05-10T07:22:53;14.80;99.90
27797;DHT22;15177;50.844;4.412;2023-05-10T07:25:18;14.70;99.90
27797;DHT22;15177;50.844;4.412;2023-05-10T07:27:45;14.70;99.90
27797;DHT22;15177;50.844;4.412;2023-05-10T07:30:15;14.70;99.90
27797;DHT22;15177;50.844;4.412;2023-05-10T07:32:41;14.70;99.90
27797;DHT22;15177;50.844;4.412;2023-05-10T07:35:07;14.60;99.90
27797;DHT22;15177;50.844;4.412;2023-05-10T07:37:33;14.70;99.90
27797;DHT22;15177;50.844;4.412;2023-05-10T07:39:59;14.70;99.90
27797;DHT22;15177;50.844;4.412;2023-05-10T07:42:28;14.60;99.90
27797;DHT22;15177;50.844;4.412;2023-05-10T07:44:59;14.60;99.90
27797;DHT22;15177;50.844;4.412;2023-05-10T07:47:38;14.60;99.90
27797;DHT22;15177;50.844;4.412;2023-05-10T07:50:06;14.60;99.90
27797;DHT22;15177;50.844;4.412;2023-05-10T07:52:33;14.60;99.90
27797;DHT22;15177;50.844;4.412;2023-05-10T07:55:06;14.60;99.90
27797;DHT22;15177;50.844;4.412;2023-05-10T07:57:35;14.60;99.90
27797;DHT22;15177;50.844;4.412;2023-05-10T08:00:03;14.60;99.90
27797;DHT22;15177;50.844;4.412;2023-05-10T08:02:32;14.70;99.90
27797;DHT22;15177;50.844;4.412;2023-05-10T08:04:57;14.60;99.90
27797;DHT22;15177;50.844;4.412;2023-05-10T08:07:24;14.70;99.90
27797;DHT22;15177;50.844;4.412;2023-05-10T08:09:50;14.80;99.90
27797;DHT22;15177;50.844;4.412;2023-05-10T08:12:16;14.80;99.90
27797;DHT22;15177;50.844;4.412;2023-05-10T08:14:42;14.90;99.90
27797;DHT22;15177;50.844;4.412;2023-05-10T08:17:08;14.90;99.90
27797;DHT22;15177;50.844;4.412;2023-05-10T08:19:34;15.00;99.90
27797;DHT22;15177;50.844;4.412;2023-05-10T08:22:00;15.00;99.90
27797;DHT22;15177;50.844;4.412;2023-05-10T08:24:26;15.20;99.90
27797;DHT22;15177;50.844;4.412;2023-05-10T08:26:52;15.30;99.90
27797;DHT22;15177;50.844;4.412;2023-05-10T08:29:18;15.40;99.90
27797;DHT22;15177;50.844;4.412;2023-05-10T08:31:43;15.50;99.90
27797;DHT22;15177;50.844;4.412;2023-05-10T08:34:09;15.50;99.90
27797;DHT22;15177;50.844;4.412;2023-05-10T08:36:35;15.50;99.90
27797;DHT22;15177;50.844;4.412;2023-05-10T08:39:02;15.50;99.90
27797;DHT22;15177;50.844;4.412;2023-05-10T08:41:30;15.60;99.90
27797;DHT22;15177;50.844;4.412;2023-05-10T08:43:59;15.60;99.90
27797;DHT22;15177;50.844;4.412;2023-05-10T08:46:29;15.50;99.90
27797;DHT22;15177;50.844;4.412;2023-05-10T08:48:58;15.60;99.90
27797;DHT22;15177;50.844;4.412;2023-05-10T08:51:26;15.60;99.90
27797;DHT22;15177;50.844;4.412;2023-05-10T08:53:53;15.60;99.90
27797;DHT22;15177;50.844;4.412;2023-05-10T08:56:19;15.70;99.90
27797;DHT22;15177;50.844;4.412;2023-05-10T08:58:46;15.80;99.90
27797;DHT22;15177;50.844;4.412;2023-05-10T09:01:13;15.90;99.90
27797;DHT22;15177;50.844;4.412;2023-05-10T09:03:40;16.00;99.90
27797;DHT22;15177;50.844;4.412;2023-05-10T09:06:06;16.00;99.90
27797;DHT22;15177;50.844;4.412;2023-05-10T09:08:32;16.10;99.90
27797;DHT22;15177;50.844;4.412;2023-05-10T09:11:01;16.00;99.90
27797;DHT22;15177;50.844;4.412;2023-05-10T09:13:29;15.90;99.90
27797;DHT22;15177;50.844;4.412;2023-05-10T09:15:58;15.80;99.90
27797;DHT22;15177;50.844;4.412;2023-05-10T09:18:24;15.70;99.90
27797;DHT22;15177;50.844;4.412;2023-05-10T09:20:50;15.60;99.90
27797;DHT22;15177;50.844;4.412;2023-05-10T09:23:16;15.60;99.90
27797;DHT22;15177;50.844;4.412;2023-05-10T09:25:43;15.60;99.90
27797;DHT22;15177;50.844;4.412;2023-05-10T09:28:09;15.60;99.90
27797;DHT22;15177;50.844;4.412;2023-05-10T09:30:36;15.70;99.90
27797;DHT22;15177;50.844;4.412;2023-05-10T09:33:04;15.60;99.90
27797;DHT22;15177;50.844;4.412;2023-05-10T09:35:31;15.60;99.90
27797;DHT22;15177;50.844;4.412;2023-05-10T09:38:03;15.60;99.90
27797;DHT22;15177;50.844;4.412;2023-05-10T09:40:31;15.60;99.90
27797;DHT22;15177;50.844;4.412;2023-05-10T09:43:07;15.50;99.90
27797;DHT22;15177;50.844;4.412;2023-05-10T09:45:35;15.50;99.90
27797;DHT22;15177;50.844;4.412;2023-05-10T09:48:02;15.40;99.90
27797;DHT22;15177;50.844;4.412;2023-05-10T09:50:29;15.50;99.90
27797;DHT22;15177;50.844;4.412;2023-05-10T09:52:56;15.50;99.90
27797;DHT22;15177;50.844;4.412;2023-05-10T09:58:04;15.50;99.90
27797;DHT22;15177;50.844;4.412;2023-05-10T10:00:36;15.40;99.90
27797;DHT22;15177;50.844;4.412;2023-05-10T10:03:02;15.50;99.90
27797;DHT22;15177;50.844;4.412;2023-05-10T10:05:30;15.40;99.90
27797;DHT22;15177;50.844;4.412;2023-05-10T10:07:57;15.40;99.90
27797;DHT22;15177;50.844;4.412;2023-05-10T10:10:24;15.40;99.90
27797;DHT22;15177;50.844;4.412;2023-05-10T10:12:51;15.50;99.90
27797;DHT22;15177;50.844;4.412;2023-05-10T10:15:18;15.50;99.90
27797;DHT22;15177;50.844;4.412;2023-05-10T10:17:48;15.40;99.90
27797;DHT22;15177;50.844;4.412;2023-05-10T10:20:15;15.40;99.90
27797;DHT22;15177;50.844;4.412;2023-05-10T10:22:40;15.50;99.90
27797;DHT22;15177;50.844;4.412;2023-05-10T10:25:07;15.50;99.90
27797;DHT22;15177;50.844;4.412;2023-05-10T10:35:50;15.50;99.90
27797;DHT22;15177;50.844;4.412;2023-05-10T10:38:17;15.50;99.90
27797;DHT22;15177;50.844;4.412;2023-05-10T10:40:43;15.50;99.90
27797;DHT22;15177;50.844;4.412;2023-05-10T10:43:26;15.60;99.90
27797;DHT22;15177;50.844;4.412;2023-05-10T10:49:10;15.80;99.90
27797;DHT22;15177;50.844;4.412;2023-05-10T10:51:39;15.90;99.90
27797;DHT22;15177;50.844;4.412;2023-05-10T10:54:11;16.00;99.90
27797;DHT22;15177;50.844;4.412;2023-05-10T10:56:37;16.00;99.90
27797;DHT22;15177;50.844;4.412;2023-05-10T10:59:04;16.10;99.90
27797;DHT22;15177;50.844;4.412;2023-05-10T11:01:34;16.10;99.90
27797;DHT22;15177;50.844;4.412;2023-05-10T11:06:35;16.10;99.90
27797;DHT22;15177;50.844;4.412;2023-05-10T11:09:24;16.20;99.90
27797;DHT22;15177;50.844;4.412;2023-05-10T11:11:54;16.30;99.90
27797;DHT22;15177;50.844;4.412;2023-05-10T11:14:22;16.30;99.90
27797;DHT22;15177;50.844;4.412;2023-05-10T11:16:48;16.50;99.90
27797;DHT22;15177;50.844;4.412;2023-05-10T11:19:17;16.70;99.90
27797;DHT22;15177;50.844;4.412;2023-05-10T11:22:11;16.80;99.90
27797;DHT22;15177;50.844;4.412;2023-05-10T11:24:39;17.00;99.90
27797;DHT22;15177;50.844;4.412;2023-05-10T11:27:05;17.20;99.90
27797;DHT22;15177;50.844;4.412;2023-05-10T11:29:31;17.20;99.90
27797;DHT22;15177;50.844;4.412;2023-05-10T11:31:58;17.30;99.90
27797;DHT22;15177;50.844;4.412;2023-05-10T11:34:25;17.30;99.90
27797;DHT22;15177;50.844;4.412;2023-05-10T11:36:53;17.40;99.90
27797;DHT22;15177;50.844;4.412;2023-05-10T11:39:20;17.40;99.90
27797;DHT22;15177;50.844;4.412;2023-05-10T11:41:50;17.50;99.90
27797;DHT22;15177;50.844;4.412;2023-05-10T11:44:16;17.60;99.90
27797;DHT22;15177;50.844;4.412;2023-05-10T11:46:41;17.70;99.90
27797;DHT22;15177;50.844;4.412;2023-05-10T11:49:10;17.80;99.90
27797;DHT22;15177;50.844;4.412;2023-05-10T11:51:37;17.90;99.90
27797;DHT22;15177;50.844;4.412;2023-05-10T11:54:10;17.90;99.90
27797;DHT22;15177;50.844;4.412;2023-05-10T11:56:37;17.90;99.90
27797;DHT22;15177;50.844;4.412;2023-05-10T11:59:03;17.90;99.90
27797;DHT22;15177;50.844;4.412;2023-05-10T12:01:30;17.90;99.90
27797;DHT22;15177;50.844;4.412;2023-05-10T12:03:58;17.90;99.90
27797;DHT22;15177;50.844;4.412;2023-05-10T12:06:32;18.00;99.90
27797;DHT22;15177;50.844;4.412;2023-05-10T12:09:06;18.00;99.90
27797;DHT22;15177;50.844;4.412;2023-05-10T12:11:32;18.00;99.90
27797;DHT22;15177;50.844;4.412;2023-05-10T12:13:57;18.10;99.90
27797;DHT22;15177;50.844;4.412;2023-05-10T12:16:25;18.30;99.90
27797;DHT22;15177;50.844;4.412;2023-05-10T12:18:52;18.40;99.90
27797;DHT22;15177;50.844;4.412;2023-05-10T12:21:19;18.40;99.90
27797;DHT22;15177;50.844;4.412;2023-05-10T12:23:46;18.40;99.90
27797;DHT22;15177;50.844;4.412;2023-05-10T12:26:12;18.60;99.90
27797;DHT22;15177;50.844;4.412;2023-05-10T12:28:38;18.60;99.90
27797;DHT22;15177;50.844;4.412;2023-05-10T12:31:07;18.60;99.90
27797;DHT22;15177;50.844;4.412;2023-05-10T12:33:41;18.70;99.90
27797;DHT22;15177;50.844;4.412;2023-05-10T12:36:11;18.80;99.90
27797;DHT22;15177;50.844;4.412;2023-05-10T12:38:39;18.90;99.90
27797;DHT22;15177;50.844;4.412;2023-05-10T12:41:10;18.90;99.90
27797;DHT22;15177;50.844;4.412;2023-05-10T12:43:37;18.80;99.90
27797;DHT22;15177;50.844;4.412;2023-05-10T12:46:07;18.70;99.90
27797;DHT22;15177;50.844;4.412;2023-05-10T12:48:33;18.60;99.90
27797;DHT22;15177;50.844;4.412;2023-05-10T12:51:01;18.60;99.90
27797;DHT22;15177;50.844;4.412;2023-05-10T12:53:28;18.60;99.90
27797;DHT22;15177;50.844;4.412;2023-05-10T12:55:55;18.80;99.90
27797;DHT22;15177;50.844;4.412;2023-05-10T12:58:21;19.00;99.90
27797;DHT22;15177;50.844;4.412;2023-05-10T13:00:46;19.00;99.90
27797;DHT22;15177;50.844;4.412;2023-05-10T13:03:12;19.00;99.90
27797;DHT22;15177;50.844;4.412;2023-05-10T13:05:38;19.10;99.90
27797;DHT22;15177;50.844;4.412;2023-05-10T13:08:04;19.10;99.90
27797;DHT22;15177;50.844;4.412;2023-05-10T13:10:31;19.00;99.90
27797;DHT22;15177;50.844;4.412;2023-05-10T13:12:57;19.00;99.90
27797;DHT22;15177;50.844;4.412;2023-05-10T13:15:25;19.00;99.90
27797;DHT22;15177;50.844;4.412;2023-05-10T13:17:52;19.10;99.90
27797;DHT22;15177;50.844;4.412;2023-05-10T13:20:18;19.10;99.90
27797;DHT22;15177;50.844;4.412;2023-05-10T13:22:44;19.10;99.90
27797;DHT22;15177;50.844;4.412;2023-05-10T13:25:10;19.20;99.90
27797;DHT22;15177;50.844;4.412;2023-05-10T13:27:37;19.20;99.90
27797;DHT22;15177;50.844;4.412;2023-05-10T13:30:03;19.30;99.90
27797;DHT22;15177;50.844;4.412;2023-05-10T13:32:29;19.30;99.90
27797;DHT22;15177;50.844;4.412;2023-05-10T13:34:55;19.50;99.90
27797;DHT22;15177;50.844;4.412;2023-05-10T13:37:21;19.60;99.90
27797;DHT22;15177;50.844;4.412;2023-05-10T13:39:47;19.60;99.90
27797;DHT22;15177;50.844;4.412;2023-05-10T13:42:13;19.60;99.90
27797;DHT22;15177;50.844;4.412;2023-05-10T13:44:39;19.60;99.90
27797;DHT22;15177;50.844;4.412;2023-05-10T13:47:05;19.50;99.90
27797;DHT22;15177;50.844;4.412;2023-05-10T13:49:31;19.50;99.90
27797;DHT22;15177;50.844;4.412;2023-05-10T13:51:57;19.50;99.90
27797;DHT22;15177;50.844;4.412;2023-05-10T13:54:23;19.40;99.90
27797;DHT22;15177;50.844;4.412;2023-05-10T13:56:49;19.40;99.90
27797;DHT22;15177;50.844;4.412;2023-05-10T13:59:15;19.30;99.90
27797;DHT22;15177;50.844;4.412;2023-05-10T14:01:41;19.40;99.90
27797;DHT22;15177;50.844;4.412;2023-05-10T14:04:08;19.50;99.90
27797;DHT22;15177;50.844;4.412;2023-05-10T14:06:36;19.40;99.90
27797;DHT22;15177;50.844;4.412;2023-05-10T14:09:02;19.40;99.90
27797;DHT22;15177;50.844;4.412;2023-05-10T14:11:28;19.40;99.90
27797;DHT22;15177;50.844;4.412;2023-05-10T14:13:53;19.30;99.90
27797;DHT22;15177;50.844;4.412;2023-05-10T14:16:19;19.30;99.90
27797;DHT22;15177;50.844;4.412;2023-05-10T14:18:45;19.30;99.90
27797;DHT22;15177;50.844;4.412;2023-05-10T14:21:12;19.40;99.90
27797;DHT22;15177;50.844;4.412;2023-05-10T14:23:41;19.30;99.90
27797;DHT22;15177;50.844;4.412;2023-05-10T14:26:06;19.40;99.90
27797;DHT22;15177;50.844;4.412;2023-05-10T14:28:34;19.30;99.90
27797;DHT22;15177;50.844;4.412;2023-05-10T14:30:59;19.30;99.90
27797;DHT22;15177;50.844;4.412;2023-05-10T14:33:25;19.20;99.90
27797;DHT22;15177;50.844;4.412;2023-05-10T14:35:53;19.20;99.90
27797;DHT22;15177;50.844;4.412;2023-05-10T14:38:19;19.20;99.90
27797;DHT22;15177;50.844;4.412;2023-05-10T14:40:46;19.10;99.90
27797;DHT22;15177;50.844;4.412;2023-05-10T14:43:12;19.10;99.90
27797;DHT22;15177;50.844;4.412;2023-05-10T14:45:37;19.10;99.90
27797;DHT22;15177;50.844;4.412;2023-05-10T14:48:04;19.00;99.90
27797;DHT22;15177;50.844;4.412;2023-05-10T14:50:31;19.00;99.90
27797;DHT22;15177;50.844;4.412;2023-05-10T14:52:57;18.90;99.90
27797;DHT22;15177;50.844;4.412;2023-05-10T14:55:25;18.80;99.90
27797;DHT22;15177;50.844;4.412;2023-05-10T14:57:50;18.50;99.90
27797;DHT22;15177;50.844;4.412;2023-05-10T15:00:16;18.30;99.90
27797;DHT22;15177;50.844;4.412;2023-05-10T15:02:44;18.20;99.90
27797;DHT22;15177;50.844;4.412;2023-05-10T15:05:14;18.20;99.90
27797;DHT22;15177;50.844;4.412;2023-05-10T15:07:39;18.00;99.90
27797;DHT22;15177;50.844;4.412;2023-05-10T15:10:06;17.90;99.90
27797;DHT22;15177;50.844;4.412;2023-05-10T15:12:31;17.90;99.90
27797;DHT22;15177;50.844;4.412;2023-05-10T15:14:57;17.60;99.90
27797;DHT22;15177;50.844;4.412;2023-05-10T15:17:23;17.40;99.90
27797;DHT22;15177;50.844;4.412;2023-05-10T15:19:48;17.20;99.90
27797;DHT22;15177;50.844;4.412;2023-05-10T15:22:15;17.20;99.90
27797;DHT22;15177;50.844;4.412;2023-05-10T15:24:40;17.10;99.90
27797;DHT22;15177;50.844;4.412;2023-05-10T15:27:07;16.90;99.90
27797;DHT22;15177;50.844;4.412;2023-05-10T15:29:32;16.70;99.90
27797;DHT22;15177;50.844;4.412;2023-05-10T15:31:59;16.40;99.90
27797;DHT22;15177;50.844;4.412;2023-05-10T15:34:27;16.30;99.90
27797;DHT22;15177;50.844;4.412;2023-05-10T15:36:53;16.40;99.90
27797;DHT22;15177;50.844;4.412;2023-05-10T15:39:18;16.40;99.90
27797;DHT22;15177;50.844;4.412;2023-05-10T15:41:44;16.50;99.90
27797;DHT22;15177;50.844;4.412;2023-05-10T15:44:10;16.60;99.90
27797;DHT22;15177;50.844;4.412;2023-05-10T15:46:36;16.70;99.90
27797;DHT22;15177;50.844;4.412;2023-05-10T15:49:03;16.90;99.90
27797;DHT22;15177;50.844;4.412;2023-05-10T15:51:28;17.00;99.90
27797;DHT22;15177;50.844;4.412;2023-05-10T15:53:54;17.00;99.90
27797;DHT22;15177;50.844;4.412;2023-05-10T15:56:20;17.00;99.90
27797;DHT22;15177;50.844;4.412;2023-05-10T15:58:49;16.90;99.90
27797;DHT22;15177;50.844;4.412;2023-05-10T16:01:15;16.70;99.90
27797;DHT22;15177;50.844;4.412;2023-05-10T16:03:41;16.70;99.90
27797;DHT22;15177;50.844;4.412;2023-05-10T16:06:08;16.70;99.90
27797;DHT22;15177;50.844;4.412;2023-05-10T16:08:33;16.80;99.90